sensor_id;sensor_type;location;lat;lon;timestamp;P1;durP1;ratioP1;P2;durP2;ratioP2
3121;SDS011;1571;52.524;14.104;2023-08-20T00:01:05;18.13;;;16.47;;
3121;SDS011;1571;52.524;14.104;2023-08-20T00:03:34;20.03;;;18.20;;
3121;SDS011;1571;52.524;14.104;2023-08-20T00:06:04;20.23;;;18.50;;
3121;SDS011;1571;52.524;14.104;2023-08-20T00:08:32;19.50;;;17.70;;
3121;SDS011;1571;52.524;14.104;2023-08-20T00:11:02;19.43;;;17.73;;
3121;SDS011;1571;52.524;14.104;2023-08-20T00:13:31;19.50;;;17.50;;
3121;SDS011;1571;52.524;14.104;2023-08-20T00:16:00;19.43;;;17.50;;
3121;SDS011;1571;52.524;14.104;2023-08-20T00:18:30;19.17;;;17.30;;
3121;SDS011;1571;52.524;14.104;2023-08-20T00:20:59;21.10;;;19.07;;
3121;SDS011;1571;52.524;14.104;2023-08-20T00:23:27;19.17;;;17.57;;
3121;SDS011;1571;52.524;14.104;2023-08-20T00:25:58;18.93;;;17.07;;
3121;SDS011;1571;52.524;14.104;2023-08-20T00:28:26;23.43;;;19.17;;
3121;SDS011;1571;52.524;14.104;2023-08-20T00:30:54;21.60;;;19.57;;
3121;SDS011;1571;52.524;14.104;2023-08-20T00:33:23;20.40;;;18.23;;
3121;SDS011;1571;52.524;14.104;2023-08-20T00:35:51;20.97;;;18.87;;
3121;SDS011;1571;52.524;14.104;2023-08-20T00:38:19;20.23;;;18.17;;
3121;SDS011;1571;52.524;14.104;2023-08-20T00:40:47;20.63;;;18.87;;
3121;SDS011;1571;52.524;14.104;2023-08-20T00:43:17;21.23;;;19.13;;
3121;SDS011;1571;52.524;14.104;2023-08-20T00:45:45;22.07;;;20.20;;
3121;SDS011;1571;52.524;14.104;2023-08-20T00:48:13;20.90;;;18.73;;
3121;SDS011;1571;52.524;14.104;2023-08-20T00:50:43;27.23;;;18.83;;
3121;SDS011;1571;52.524;14.104;2023-08-20T00:53:12;21.37;;;19.50;;
3121;SDS011;1571;52.524;14.104;2023-08-20T00:55:42;19.37;;;17.47;;
3121;SDS011;1571;52.524;14.104;2023-08-20T00:58:11;20.70;;;18.57;;
3121;SDS011;1571;52.524;14.104;2023-08-20T01:00:41;19.53;;;17.73;;
3121;SDS011;1571;52.524;14.104;2023-08-20T01:03:09;22.63;;;20.50;;
3121;SDS011;1571;52.524;14.104;2023-08-20T01:05:39;21.27;;;19.37;;
3121;SDS011;1571;52.524;14.104;2023-08-20T01:08:21;19.93;;;18.20;;
3121;SDS011;1571;52.524;14.104;2023-08-20T01:10:59;19.60;;;18.00;;
3121;SDS011;1571;52.524;14.104;2023-08-20T01:13:33;20.07;;;18.37;;
3121;SDS011;1571;52.524;14.104;2023-08-20T01:16:02;20.07;;;18.40;;
3121;SDS011;1571;52.524;14.104;2023-08-20T01:18:31;21.03;;;18.60;;
3121;SDS011;1571;52.524;14.104;2023-08-20T01:21:00;20.43;;;17.50;;
3121;SDS011;1571;52.524;14.104;2023-08-20T01:26:33;18.73;;;16.93;;
3121;SDS011;1571;52.524;14.104;2023-08-20T01:29:12;20.03;;;18.13;;
3121;SDS011;1571;52.524;14.104;2023-08-20T01:31:41;20.93;;;18.93;;
3121;SDS011;1571;52.524;14.104;2023-08-20T01:34:11;18.87;;;17.37;;
3121;SDS011;1571;52.524;14.104;2023-08-20T01:36:41;17.80;;;16.30;;
3121;SDS011;1571;52.524;14.104;2023-08-20T01:39:10;19.03;;;17.43;;
3121;SDS011;1571;52.524;14.104;2023-08-20T01:41:38;19.80;;;17.77;;
3121;SDS011;1571;52.524;14.104;2023-08-20T01:44:07;19.27;;;17.67;;
3121;SDS011;1571;52.524;14.104;2023-08-20T01:46:37;20.97;;;18.97;;
3121;SDS011;1571;52.524;14.104;2023-08-20T01:49:05;19.43;;;17.83;;
3121;SDS011;1571;52.524;14.104;2023-08-20T01:51:33;20.90;;;19.20;;
3121;SDS011;1571;52.524;14.104;2023-08-20T01:54:03;21.57;;;19.57;;
3121;SDS011;1571;52.524;14.104;2023-08-20T01:56:32;21.20;;;19.40;;
3121;SDS011;1571;52.524;14.104;2023-08-20T01:59:00;22.37;;;20.67;;
3121;SDS011;1571;52.524;14.104;2023-08-20T02:01:29;24.27;;;22.17;;
3121;SDS011;1571;52.524;14.104;2023-08-20T02:03:58;24.73;;;22.53;;
3121;SDS011;1571;52.524;14.104;2023-08-20T02:06:26;21.87;;;19.57;;
3121;SDS011;1571;52.524;14.104;2023-08-20T02:08:55;23.03;;;20.33;;
3121;SDS011;1571;52.524;14.104;2023-08-20T02:11:24;24.07;;;21.97;;
3121;SDS011;1571;52.524;14.104;2023-08-20T02:13:53;21.87;;;19.73;;
3121;SDS011;1571;52.524;14.104;2023-08-20T02:16:21;21.80;;;19.07;;
3121;SDS011;1571;52.524;14.104;2023-08-20T02:18:50;22.30;;;20.30;;
3121;SDS011;1571;52.524;14.104;2023-08-20T02:21:19;21.73;;;19.60;;
3121;SDS011;1571;52.524;14.104;2023-08-20T02:23:47;21.83;;;19.90;;
3121;SDS011;1571;52.524;14.104;2023-08-20T02:26:15;20.13;;;18.40;;
3121;SDS011;1571;52.524;14.104;2023-08-20T02:28:44;21.80;;;19.90;;
3121;SDS011;1571;52.524;14.104;2023-08-20T02:31:12;22.10;;;20.00;;
3121;SDS011;1571;52.524;14.104;2023-08-20T02:33:40;20.63;;;18.80;;
3121;SDS011;1571;52.524;14.104;2023-08-20T02:36:12;21.93;;;19.80;;
3121;SDS011;1571;52.524;14.104;2023-08-20T02:38:42;20.90;;;19.00;;
3121;SDS011;1571;52.524;14.104;2023-08-20T02:41:12;24.50;;;22.20;;
3121;SDS011;1571;52.524;14.104;2023-08-20T02:43:41;23.70;;;21.33;;
3121;SDS011;1571;52.524;14.104;2023-08-20T02:46:09;22.33;;;20.23;;
3121;SDS011;1571;52.524;14.104;2023-08-20T02:48:37;20.93;;;18.97;;
3121;SDS011;1571;52.524;14.104;2023-08-20T02:51:06;24.30;;;22.00;;
3121;SDS011;1571;52.524;14.104;2023-08-20T02:53:34;23.67;;;21.50;;
3121;SDS011;1571;52.524;14.104;2023-08-20T02:56:04;24.70;;;22.50;;
3121;SDS011;1571;52.524;14.104;2023-08-20T02:58:32;24.40;;;22.30;;
3121;SDS011;1571;52.524;14.104;2023-08-20T03:01:01;25.57;;;23.07;;
3121;SDS011;1571;52.524;14.104;2023-08-20T03:03:29;27.83;;;22.80;;
3121;SDS011;1571;52.524;14.104;2023-08-20T03:05:58;24.80;;;22.57;;
3121;SDS011;1571;52.524;14.104;2023-08-20T03:08:26;23.03;;;20.90;;
3121;SDS011;1571;52.524;14.104;2023-08-20T03:10:55;23.07;;;21.17;;
3121;SDS011;1571;52.524;14.104;2023-08-20T03:13:24;25.20;;;23.00;;
3121;SDS011;1571;52.524;14.104;2023-08-20T03:15:53;25.40;;;22.70;;
3121;SDS011;1571;52.524;14.104;2023-08-20T03:18:21;23.73;;;21.50;;
3121;SDS011;1571;52.524;14.104;2023-08-20T03:20:49;26.20;;;23.87;;
3121;SDS011;1571;52.524;14.104;2023-08-20T03:23:18;27.37;;;24.57;;
3121;SDS011;1571;52.524;14.104;2023-08-20T03:25:46;25.90;;;23.60;;
3121;SDS011;1571;52.524;14.104;2023-08-20T03:28:14;26.57;;;24.07;;
3121;SDS011;1571;52.524;14.104;2023-08-20T03:30:44;24.53;;;22.23;;
3121;SDS011;1571;52.524;14.104;2023-08-20T03:33:16;23.63;;;21.50;;
3121;SDS011;1571;52.524;14.104;2023-08-20T03:35:45;25.90;;;23.60;;
3121;SDS011;1571;52.524;14.104;2023-08-20T03:38:13;25.13;;;22.83;;
3121;SDS011;1571;52.524;14.104;2023-08-20T03:40:41;26.30;;;23.93;;
3121;SDS011;1571;52.524;14.104;2023-08-20T03:43:12;25.93;;;23.43;;
3121;SDS011;1571;52.524;14.104;2023-08-20T03:45:40;25.20;;;22.83;;
3121;SDS011;1571;52.524;14.104;2023-08-20T03:48:09;25.10;;;22.80;;
3121;SDS011;1571;52.524;14.104;2023-08-20T03:50:39;24.27;;;21.87;;
3121;SDS011;1571;52.524;14.104;2023-08-20T03:53:07;22.37;;;20.47;;
3121;SDS011;1571;52.524;14.104;2023-08-20T03:55:35;23.17;;;21.00;;
3121;SDS011;1571;52.524;14.104;2023-08-20T03:58:03;25.43;;;23.20;;
3121;SDS011;1571;52.524;14.104;2023-08-20T04:00:32;22.97;;;21.07;;
3121;SDS011;1571;52.524;14.104;2023-08-20T04:03:02;24.43;;;21.93;;
3121;SDS011;1571;52.524;14.104;2023-08-20T04:05:36;25.57;;;21.70;;
3121;SDS011;1571;52.524;14.104;2023-08-20T04:08:05;24.67;;;22.47;;
3121;SDS011;1571;52.524;14.104;2023-08-20T04:10:34;24.23;;;21.87;;
3121;SDS011;1571;52.524;14.104;2023-08-20T04:13:06;23.60;;;21.50;;
3121;SDS011;1571;52.524;14.104;2023-08-20T04:15:34;23.77;;;21.60;;
3121;SDS011;1571;52.524;14.104;2023-08-20T04:18:03;23.03;;;21.13;;
3121;SDS011;1571;52.524;14.104;2023-08-20T04:20:31;23.40;;;21.20;;
3121;SDS011;1571;52.524;14.104;2023-08-20T04:23:03;24.43;;;22.23;;
3121;SDS011;1571;52.524;14.104;2023-08-20T04:25:31;23.00;;;20.70;;
3121;SDS011;1571;52.524;14.104;2023-08-20T04:28:00;23.90;;;21.77;;
3121;SDS011;1571;52.524;14.104;2023-08-20T04:30:29;23.67;;;21.47;;
3121;SDS011;1571;52.524;14.104;2023-08-20T04:32:58;23.67;;;21.33;;
3121;SDS011;1571;52.524;14.104;2023-08-20T04:35:28;23.70;;;21.53;;
3121;SDS011;1571;52.524;14.104;2023-08-20T04:37:56;22.97;;;20.77;;
3121;SDS011;1571;52.524;14.104;2023-08-20T04:40:27;23.30;;;20.97;;
3121;SDS011;1571;52.524;14.104;2023-08-20T04:42:55;24.27;;;22.00;;
3121;SDS011;1571;52.524;14.104;2023-08-20T04:45:23;22.60;;;20.50;;
3121;SDS011;1571;52.524;14.104;2023-08-20T04:47:52;23.43;;;21.23;;
3121;SDS011;1571;52.524;14.104;2023-08-20T04:50:20;22.00;;;19.77;;
3121;SDS011;1571;52.524;14.104;2023-08-20T04:52:49;23.57;;;21.30;;
3121;SDS011;1571;52.524;14.104;2023-08-20T04:55:18;22.53;;;20.30;;
3121;SDS011;1571;52.524;14.104;2023-08-20T04:57:48;23.53;;;21.10;;
3121;SDS011;1571;52.524;14.104;2023-08-20T05:00:17;22.27;;;20.37;;
3121;SDS011;1571;52.524;14.104;2023-08-20T05:02:52;21.00;;;19.20;;
3121;SDS011;1571;52.524;14.104;2023-08-20T05:05:22;21.90;;;19.90;;
3121;SDS011;1571;52.524;14.104;2023-08-20T05:07:51;19.67;;;18.03;;
3121;SDS011;1571;52.524;14.104;2023-08-20T05:10:20;17.87;;;16.40;;
3121;SDS011;1571;52.524;14.104;2023-08-20T05:12:49;18.23;;;16.63;;
3121;SDS011;1571;52.524;14.104;2023-08-20T05:15:18;14.87;;;13.73;;
3121;SDS011;1571;52.524;14.104;2023-08-20T05:17:47;15.40;;;14.10;;
3121;SDS011;1571;52.524;14.104;2023-08-20T05:20:15;16.87;;;15.27;;
3121;SDS011;1571;52.524;14.104;2023-08-20T05:22:44;16.80;;;15.30;;
3121;SDS011;1571;52.524;14.104;2023-08-20T05:25:12;14.63;;;13.50;;
3121;SDS011;1571;52.524;14.104;2023-08-20T05:27:42;16.13;;;14.53;;
3121;SDS011;1571;52.524;14.104;2023-08-20T05:30:12;16.00;;;14.80;;
3121;SDS011;1571;52.524;14.104;2023-08-20T05:32:40;14.60;;;13.30;;
3121;SDS011;1571;52.524;14.104;2023-08-20T05:35:08;13.87;;;12.50;;
3121;SDS011;1571;52.524;14.104;2023-08-20T05:37:38;14.73;;;13.20;;
3121;SDS011;1571;52.524;14.104;2023-08-20T05:40:07;15.17;;;13.83;;
3121;SDS011;1571;52.524;14.104;2023-08-20T05:42:37;14.10;;;12.80;;
3121;SDS011;1571;52.524;14.104;2023-08-20T05:45:07;14.90;;;13.53;;
3121;SDS011;1571;52.524;14.104;2023-08-20T05:47:37;14.50;;;12.97;;
3121;SDS011;1571;52.524;14.104;2023-08-20T05:50:07;11.97;;;10.87;;
3121;SDS011;1571;52.524;14.104;2023-08-20T05:52:36;14.73;;;13.47;;
3121;SDS011;1571;52.524;14.104;2023-08-20T05:55:04;13.87;;;12.77;;
3121;SDS011;1571;52.524;14.104;2023-08-20T05:57:33;14.57;;;13.37;;
3121;SDS011;1571;52.524;14.104;2023-08-20T06:00:04;13.80;;;12.50;;
3121;SDS011;1571;52.524;14.104;2023-08-20T06:02:40;12.90;;;11.80;;
3121;SDS011;1571;52.524;14.104;2023-08-20T06:05:09;14.17;;;12.97;;
3121;SDS011;1571;52.524;14.104;2023-08-20T06:07:38;12.87;;;11.77;;
3121;SDS011;1571;52.524;14.104;2023-08-20T06:10:07;13.90;;;12.80;;
3121;SDS011;1571;52.524;14.104;2023-08-20T06:12:36;12.40;;;11.20;;
3121;SDS011;1571;52.524;14.104;2023-08-20T06:15:04;12.10;;;11.07;;
3121;SDS011;1571;52.524;14.104;2023-08-20T06:17:34;13.27;;;11.90;;
3121;SDS011;1571;52.524;14.104;2023-08-20T06:20:04;13.83;;;12.53;;
3121;SDS011;1571;52.524;14.104;2023-08-20T06:22:35;13.27;;;12.20;;
3121;SDS011;1571;52.524;14.104;2023-08-20T06:25:04;14.30;;;13.07;;
3121;SDS011;1571;52.524;14.104;2023-08-20T06:27:33;14.77;;;13.40;;
3121;SDS011;1571;52.524;14.104;2023-08-20T06:30:03;14.83;;;13.40;;
3121;SDS011;1571;52.524;14.104;2023-08-20T06:32:33;15.33;;;13.10;;
3121;SDS011;1571;52.524;14.104;2023-08-20T06:35:03;13.13;;;12.03;;
3121;SDS011;1571;52.524;14.104;2023-08-20T06:37:32;15.10;;;13.80;;
3121;SDS011;1571;52.524;14.104;2023-08-20T06:40:01;13.07;;;11.97;;
3121;SDS011;1571;52.524;14.104;2023-08-20T06:42:29;13.87;;;12.63;;
3121;SDS011;1571;52.524;14.104;2023-08-20T06:44:57;13.77;;;12.50;;
3121;SDS011;1571;52.524;14.104;2023-08-20T06:47:25;14.03;;;12.83;;
3121;SDS011;1571;52.524;14.104;2023-08-20T06:49:54;13.07;;;11.17;;
3121;SDS011;1571;52.524;14.104;2023-08-20T06:52:23;13.37;;;12.03;;
3121;SDS011;1571;52.524;14.104;2023-08-20T06:54:51;13.23;;;12.17;;
3121;SDS011;1571;52.524;14.104;2023-08-20T06:57:20;12.80;;;11.63;;
3121;SDS011;1571;52.524;14.104;2023-08-20T06:59:48;12.80;;;11.70;;
3121;SDS011;1571;52.524;14.104;2023-08-20T07:02:16;12.10;;;11.10;;
3121;SDS011;1571;52.524;14.104;2023-08-20T07:04:44;11.90;;;10.80;;
3121;SDS011;1571;52.524;14.104;2023-08-20T07:07:12;12.40;;;11.43;;
3121;SDS011;1571;52.524;14.104;2023-08-20T07:09:43;12.93;;;11.77;;
3121;SDS011;1571;52.524;14.104;2023-08-20T07:12:11;13.13;;;12.13;;
3121;SDS011;1571;52.524;14.104;2023-08-20T07:14:39;13.20;;;12.10;;
3121;SDS011;1571;52.524;14.104;2023-08-20T07:17:07;12.40;;;11.30;;
3121;SDS011;1571;52.524;14.104;2023-08-20T07:19:36;13.20;;;12.00;;
3121;SDS011;1571;52.524;14.104;2023-08-20T07:22:04;12.23;;;11.23;;
3121;SDS011;1571;52.524;14.104;2023-08-20T07:24:32;12.67;;;11.47;;
3121;SDS011;1571;52.524;14.104;2023-08-20T07:27:03;11.83;;;10.70;;
3121;SDS011;1571;52.524;14.104;2023-08-20T07:29:37;14.27;;;12.77;;
3121;SDS011;1571;52.524;14.104;2023-08-20T07:32:06;10.90;;;10.00;;
3121;SDS011;1571;52.524;14.104;2023-08-20T07:34:34;12.03;;;10.83;;
3121;SDS011;1571;52.524;14.104;2023-08-20T07:37:02;12.00;;;10.90;;
3121;SDS011;1571;52.524;14.104;2023-08-20T07:39:31;12.10;;;11.10;;
3121;SDS011;1571;52.524;14.104;2023-08-20T07:42:00;12.10;;;11.00;;
3121;SDS011;1571;52.524;14.104;2023-08-20T07:44:29;10.90;;;10.00;;
3121;SDS011;1571;52.524;14.104;2023-08-20T07:46:58;11.80;;;10.80;;
3121;SDS011;1571;52.524;14.104;2023-08-20T07:49:26;11.87;;;10.83;;
3121;SDS011;1571;52.524;14.104;2023-08-20T07:51:54;11.40;;;10.30;;
3121;SDS011;1571;52.524;14.104;2023-08-20T07:54:23;11.63;;;10.77;;
3121;SDS011;1571;52.524;14.104;2023-08-20T07:56:51;11.10;;;10.10;;
3121;SDS011;1571;52.524;14.104;2023-08-20T07:59:19;11.90;;;10.80;;
3121;SDS011;1571;52.524;14.104;2023-08-20T08:01:48;10.50;;;9.50;;
3121;SDS011;1571;52.524;14.104;2023-08-20T08:04:17;10.33;;;9.57;;
3121;SDS011;1571;52.524;14.104;2023-08-20T08:06:45;10.27;;;9.53;;
3121;SDS011;1571;52.524;14.104;2023-08-20T08:09:20;10.60;;;9.80;;
3121;SDS011;1571;52.524;14.104;2023-08-20T08:11:49;12.13;;;11.03;;
3121;SDS011;1571;52.524;14.104;2023-08-20T08:14:17;10.23;;;9.53;;
3121;SDS011;1571;52.524;14.104;2023-08-20T08:16:45;10.70;;;9.80;;
3121;SDS011;1571;52.524;14.104;2023-08-20T08:19:16;10.90;;;9.90;;
3121;SDS011;1571;52.524;14.104;2023-08-20T08:21:44;11.23;;;10.43;;
3121;SDS011;1571;52.524;14.104;2023-08-20T08:24:13;10.53;;;9.70;;
3121;SDS011;1571;52.524;14.104;2023-08-20T08:26:42;12.03;;;10.80;;
3121;SDS011;1571;52.524;14.104;2023-08-20T08:29:10;13.37;;;10.97;;
3121;SDS011;1571;52.524;14.104;2023-08-20T08:31:38;10.83;;;10.03;;
3121;SDS011;1571;52.524;14.104;2023-08-20T08:34:07;10.47;;;9.67;;
3121;SDS011;1571;52.524;14.104;2023-08-20T08:36:36;10.20;;;9.40;;
3121;SDS011;1571;52.524;14.104;2023-08-20T08:39:04;11.27;;;10.27;;
3121;SDS011;1571;52.524;14.104;2023-08-20T08:41:35;11.13;;;10.13;;
3121;SDS011;1571;52.524;14.104;2023-08-20T08:44:06;10.10;;;9.40;;
3121;SDS011;1571;52.524;14.104;2023-08-20T08:46:36;10.53;;;9.80;;
3121;SDS011;1571;52.524;14.104;2023-08-20T08:49:06;11.23;;;10.20;;
3121;SDS011;1571;52.524;14.104;2023-08-20T08:51:37;10.67;;;9.87;;
3121;SDS011;1571;52.524;14.104;2023-08-20T08:54:07;9.43;;;8.73;;
3121;SDS011;1571;52.524;14.104;2023-08-20T08:56:36;11.13;;;10.30;;
3121;SDS011;1571;52.524;14.104;2023-08-20T08:59:04;9.80;;;8.90;;
3121;SDS011;1571;52.524;14.104;2023-08-20T09:04:05;11.03;;;10.23;;
3121;SDS011;1571;52.524;14.104;2023-08-20T09:06:45;10.23;;;9.50;;
3121;SDS011;1571;52.524;14.104;2023-08-20T09:09:14;9.03;;;8.37;;
3121;SDS011;1571;52.524;14.104;2023-08-20T09:11:44;10.00;;;9.13;;
3121;SDS011;1571;52.524;14.104;2023-08-20T09:14:20;10.43;;;9.60;;
3121;SDS011;1571;52.524;14.104;2023-08-20T09:16:55;10.23;;;9.20;;
3121;SDS011;1571;52.524;14.104;2023-08-20T09:19:27;9.00;;;8.30;;
3121;SDS011;1571;52.524;14.104;2023-08-20T09:22:01;9.90;;;9.20;;
3121;SDS011;1571;52.524;14.104;2023-08-20T09:24:32;9.83;;;9.10;;
3121;SDS011;1571;52.524;14.104;2023-08-20T09:27:03;10.40;;;9.60;;
3121;SDS011;1571;52.524;14.104;2023-08-20T09:29:32;9.33;;;8.60;;
3121;SDS011;1571;52.524;14.104;2023-08-20T09:32:01;9.40;;;8.60;;
3121;SDS011;1571;52.524;14.104;2023-08-20T09:34:36;9.37;;;8.67;;
3121;SDS011;1571;52.524;14.104;2023-08-20T09:37:10;9.33;;;8.53;;
3121;SDS011;1571;52.524;14.104;2023-08-20T09:39:41;9.57;;;8.77;;
3121;SDS011;1571;52.524;14.104;2023-08-20T09:42:10;9.70;;;8.80;;
3121;SDS011;1571;52.524;14.104;2023-08-20T09:44:39;9.47;;;8.67;;
3121;SDS011;1571;52.524;14.104;2023-08-20T09:47:08;9.87;;;8.97;;
3121;SDS011;1571;52.524;14.104;2023-08-20T09:49:38;9.20;;;8.47;;
3121;SDS011;1571;52.524;14.104;2023-08-20T09:52:07;10.10;;;9.20;;
3121;SDS011;1571;52.524;14.104;2023-08-20T09:54:42;10.20;;;9.40;;
3121;SDS011;1571;52.524;14.104;2023-08-20T09:57:22;10.10;;;9.30;;
3121;SDS011;1571;52.524;14.104;2023-08-20T09:59:55;10.83;;;9.93;;
3121;SDS011;1571;52.524;14.104;2023-08-20T10:02:23;13.93;;;9.67;;
3121;SDS011;1571;52.524;14.104;2023-08-20T10:04:52;10.57;;;9.50;;
3121;SDS011;1571;52.524;14.104;2023-08-20T10:07:21;9.90;;;9.00;;
3121;SDS011;1571;52.524;14.104;2023-08-20T10:09:54;8.80;;;8.13;;
3121;SDS011;1571;52.524;14.104;2023-08-20T10:12:24;10.93;;;9.73;;
3121;SDS011;1571;52.524;14.104;2023-08-20T10:14:52;9.87;;;8.97;;
3121;SDS011;1571;52.524;14.104;2023-08-20T10:17:21;10.07;;;9.20;;
3121;SDS011;1571;52.524;14.104;2023-08-20T10:19:50;8.70;;;8.10;;
3121;SDS011;1571;52.524;14.104;2023-08-20T10:22:19;10.03;;;9.23;;
3121;SDS011;1571;52.524;14.104;2023-08-20T10:24:48;8.97;;;8.17;;
3121;SDS011;1571;52.524;14.104;2023-08-20T10:27:24;9.13;;;8.37;;
3121;SDS011;1571;52.524;14.104;2023-08-20T10:29:54;11.17;;;10.17;;
3121;SDS011;1571;52.524;14.104;2023-08-20T10:35:13;10.10;;;9.23;;
3121;SDS011;1571;52.524;14.104;2023-08-20T10:38:05;8.67;;;7.90;;
3121;SDS011;1571;52.524;14.104;2023-08-20T10:40:54;8.80;;;8.10;;
3121;SDS011;1571;52.524;14.104;2023-08-20T10:43:25;9.60;;;8.70;;
3121;SDS011;1571;52.524;14.104;2023-08-20T10:46:06;9.63;;;8.77;;
3121;SDS011;1571;52.524;14.104;2023-08-20T10:48:37;8.57;;;7.87;;
3121;SDS011;1571;52.524;14.104;2023-08-20T10:51:08;7.50;;;7.10;;
3121;SDS011;1571;52.524;14.104;2023-08-20T10:53:37;8.57;;;7.57;;
3121;SDS011;1571;52.524;14.104;2023-08-20T10:56:10;7.70;;;7.13;;
3121;SDS011;1571;52.524;14.104;2023-08-20T10:58:45;8.20;;;7.60;;
3121;SDS011;1571;52.524;14.104;2023-08-20T11:01:15;8.80;;;8.10;;
3121;SDS011;1571;52.524;14.104;2023-08-20T11:03:46;8.57;;;7.87;;
3121;SDS011;1571;52.524;14.104;2023-08-20T11:06:15;7.87;;;7.20;;
3121;SDS011;1571;52.524;14.104;2023-08-20T11:08:44;10.33;;;9.30;;
3121;SDS011;1571;52.524;14.104;2023-08-20T11:11:12;7.90;;;7.27;;
3121;SDS011;1571;52.524;14.104;2023-08-20T11:13:41;7.80;;;7.10;;
3121;SDS011;1571;52.524;14.104;2023-08-20T11:16:11;7.83;;;7.23;;
3121;SDS011;1571;52.524;14.104;2023-08-20T11:18:39;8.63;;;7.83;;
3121;SDS011;1571;52.524;14.104;2023-08-20T11:21:08;8.00;;;7.43;;
3121;SDS011;1571;52.524;14.104;2023-08-20T11:23:36;6.17;;;5.57;;
3121;SDS011;1571;52.524;14.104;2023-08-20T11:26:08;7.20;;;6.57;;
3121;SDS011;1571;52.524;14.104;2023-08-20T11:28:37;7.90;;;7.20;;
3121;SDS011;1571;52.524;14.104;2023-08-20T11:31:05;8.10;;;7.40;;
3121;SDS011;1571;52.524;14.104;2023-08-20T11:33:36;7.43;;;6.83;;
3121;SDS011;1571;52.524;14.104;2023-08-20T11:36:04;6.83;;;6.37;;
3121;SDS011;1571;52.524;14.104;2023-08-20T11:38:34;6.90;;;6.40;;
3121;SDS011;1571;52.524;14.104;2023-08-20T11:41:02;8.40;;;7.60;;
3121;SDS011;1571;52.524;14.104;2023-08-20T11:43:30;7.57;;;7.00;;
3121;SDS011;1571;52.524;14.104;2023-08-20T11:46:00;8.20;;;7.57;;
3121;SDS011;1571;52.524;14.104;2023-08-20T11:48:28;8.40;;;7.70;;
3121;SDS011;1571;52.524;14.104;2023-08-20T11:50:58;9.63;;;8.37;;
3121;SDS011;1571;52.524;14.104;2023-08-20T11:53:27;9.00;;;8.20;;
3121;SDS011;1571;52.524;14.104;2023-08-20T11:55:56;8.03;;;7.43;;
3121;SDS011;1571;52.524;14.104;2023-08-20T11:58:24;7.93;;;7.30;;
3121;SDS011;1571;52.524;14.104;2023-08-20T12:00:52;9.20;;;8.50;;
3121;SDS011;1571;52.524;14.104;2023-08-20T12:03:21;8.50;;;7.90;;
3121;SDS011;1571;52.524;14.104;2023-08-20T12:05:49;9.27;;;8.47;;
3121;SDS011;1571;52.524;14.104;2023-08-20T12:08:19;8.00;;;7.33;;
3121;SDS011;1571;52.524;14.104;2023-08-20T12:10:47;8.47;;;7.87;;
3121;SDS011;1571;52.524;14.104;2023-08-20T12:13:15;8.13;;;7.43;;
3121;SDS011;1571;52.524;14.104;2023-08-20T12:15:43;7.90;;;7.37;;
3121;SDS011;1571;52.524;14.104;2023-08-20T12:18:11;7.83;;;7.23;;
3121;SDS011;1571;52.524;14.104;2023-08-20T12:20:40;8.60;;;7.90;;
3121;SDS011;1571;52.524;14.104;2023-08-20T12:23:08;7.67;;;7.07;;
3121;SDS011;1571;52.524;14.104;2023-08-20T12:25:38;7.80;;;6.37;;
3121;SDS011;1571;52.524;14.104;2023-08-20T12:28:06;6.80;;;6.30;;
3121;SDS011;1571;52.524;14.104;2023-08-20T12:30:35;7.17;;;6.67;;
3121;SDS011;1571;52.524;14.104;2023-08-20T12:33:05;7.10;;;6.50;;
3121;SDS011;1571;52.524;14.104;2023-08-20T12:35:34;9.90;;;5.93;;
3121;SDS011;1571;52.524;14.104;2023-08-20T12:38:03;7.43;;;6.77;;
3121;SDS011;1571;52.524;14.104;2023-08-20T12:40:32;6.53;;;6.03;;
3121;SDS011;1571;52.524;14.104;2023-08-20T12:43:01;5.90;;;5.53;;
3121;SDS011;1571;52.524;14.104;2023-08-20T12:45:30;5.90;;;5.50;;
3121;SDS011;1571;52.524;14.104;2023-08-20T12:47:58;6.50;;;6.00;;
3121;SDS011;1571;52.524;14.104;2023-08-20T12:50:29;6.20;;;5.80;;
3121;SDS011;1571;52.524;14.104;2023-08-20T12:52:57;10.20;;;6.40;;
3121;SDS011;1571;52.524;14.104;2023-08-20T12:55:25;6.80;;;6.27;;
3121;SDS011;1571;52.524;14.104;2023-08-20T12:57:54;5.60;;;5.20;;
3121;SDS011;1571;52.524;14.104;2023-08-20T13:00:25;6.33;;;5.73;;
3121;SDS011;1571;52.524;14.104;2023-08-20T13:02:54;6.03;;;5.60;;
3121;SDS011;1571;52.524;14.104;2023-08-20T13:05:23;6.37;;;5.87;;
3121;SDS011;1571;52.524;14.104;2023-08-20T13:07:53;5.50;;;5.10;;
3121;SDS011;1571;52.524;14.104;2023-08-20T13:10:21;4.93;;;4.53;;
3121;SDS011;1571;52.524;14.104;2023-08-20T13:12:51;4.10;;;3.90;;
3121;SDS011;1571;52.524;14.104;2023-08-20T13:15:21;4.70;;;4.40;;
3121;SDS011;1571;52.524;14.104;2023-08-20T13:17:53;4.37;;;4.07;;
3121;SDS011;1571;52.524;14.104;2023-08-20T13:20:22;4.43;;;4.13;;
3121;SDS011;1571;52.524;14.104;2023-08-20T13:22:52;6.30;;;3.93;;
3121;SDS011;1571;52.524;14.104;2023-08-20T13:25:20;3.57;;;3.20;;
3121;SDS011;1571;52.524;14.104;2023-08-20T13:27:49;3.20;;;3.10;;
3121;SDS011;1571;52.524;14.104;2023-08-20T13:30:17;3.33;;;3.10;;
3121;SDS011;1571;52.524;14.104;2023-08-20T13:32:46;3.60;;;2.73;;
3121;SDS011;1571;52.524;14.104;2023-08-20T13:35:16;3.80;;;3.10;;
3121;SDS011;1571;52.524;14.104;2023-08-20T13:37:45;2.83;;;2.63;;
3121;SDS011;1571;52.524;14.104;2023-08-20T13:40:13;2.10;;;2.00;;
3121;SDS011;1571;52.524;14.104;2023-08-20T13:42:41;4.90;;;2.13;;
3121;SDS011;1571;52.524;14.104;2023-08-20T13:45:09;2.53;;;2.43;;
3121;SDS011;1571;52.524;14.104;2023-08-20T13:47:38;2.20;;;2.10;;
3121;SDS011;1571;52.524;14.104;2023-08-20T13:50:06;2.73;;;2.53;;
3121;SDS011;1571;52.524;14.104;2023-08-20T13:52:36;2.50;;;2.40;;
3121;SDS011;1571;52.524;14.104;2023-08-20T13:55:05;2.13;;;2.03;;
3121;SDS011;1571;52.524;14.104;2023-08-20T13:57:34;2.83;;;2.63;;
3121;SDS011;1571;52.524;14.104;2023-08-20T14:00:03;2.60;;;2.40;;
3121;SDS011;1571;52.524;14.104;2023-08-20T14:02:38;2.43;;;2.27;;
3121;SDS011;1571;52.524;14.104;2023-08-20T14:05:07;1.80;;;1.70;;
3121;SDS011;1571;52.524;14.104;2023-08-20T14:07:37;1.73;;;1.63;;
3121;SDS011;1571;52.524;14.104;2023-08-20T14:10:06;2.50;;;1.67;;
3121;SDS011;1571;52.524;14.104;2023-08-20T14:12:35;3.13;;;2.53;;
3121;SDS011;1571;52.524;14.104;2023-08-20T14:15:07;2.07;;;1.60;;
3121;SDS011;1571;52.524;14.104;2023-08-20T14:17:36;1.67;;;1.57;;
3121;SDS011;1571;52.524;14.104;2023-08-20T14:20:05;3.93;;;1.53;;
3121;SDS011;1571;52.524;14.104;2023-08-20T14:22:35;1.80;;;1.70;;
3121;SDS011;1571;52.524;14.104;2023-08-20T14:25:06;1.60;;;1.50;;
3121;SDS011;1571;52.524;14.104;2023-08-20T14:27:35;1.83;;;1.73;;
3121;SDS011;1571;52.524;14.104;2023-08-20T14:30:03;1.57;;;1.47;;
3121;SDS011;1571;52.524;14.104;2023-08-20T14:32:33;2.50;;;1.47;;
3121;SDS011;1571;52.524;14.104;2023-08-20T14:35:06;1.40;;;1.27;;
3121;SDS011;1571;52.524;14.104;2023-08-20T14:37:35;1.63;;;1.50;;
3121;SDS011;1571;52.524;14.104;2023-08-20T14:40:06;2.93;;;1.73;;
3121;SDS011;1571;52.524;14.104;2023-08-20T14:42:36;3.50;;;1.60;;
3121;SDS011;1571;52.524;14.104;2023-08-20T14:45:05;2.03;;;1.53;;
3121;SDS011;1571;52.524;14.104;2023-08-20T14:47:34;2.97;;;1.70;;
3121;SDS011;1571;52.524;14.104;2023-08-20T14:50:03;2.73;;;1.93;;
3121;SDS011;1571;52.524;14.104;2023-08-20T14:52:32;2.30;;;1.33;;
3121;SDS011;1571;52.524;14.104;2023-08-20T14:55:00;1.83;;;1.73;;
3121;SDS011;1571;52.524;14.104;2023-08-20T14:57:32;2.73;;;2.03;;
3121;SDS011;1571;52.524;14.104;2023-08-20T15:00:17;3.07;;;1.67;;
3121;SDS011;1571;52.524;14.104;2023-08-20T15:02:45;1.60;;;1.50;;
3121;SDS011;1571;52.524;14.104;2023-08-20T15:05:14;1.80;;;1.70;;
3121;SDS011;1571;52.524;14.104;2023-08-20T15:07:43;1.50;;;1.40;;